Terminal Aerodrome Forecast
Issued by NWS

Home | Current Version | Previous Version | Text Only | Print | Product List | Glossary On
Versions: 1 2 3 4 5 6 7 8 9 10 11 12 13 14 15 16 17 18 19 20 21 22 23 24 25 26
000
FTUS45 KBOU 231132
TAFAPA
TAF
KAPA 231132Z 2312/2412 25007KT P6SM SCT060 SCT090
     FM231500 32010KT P6SM SCT060 BKN090
     FM231700 36013G21KT P6SM BKN070
     FM240000 02010KT P6SM SCT080
     FM240300 10005KT P6SM SCT120
     FM240600 19007KT P6SM FEW120 SCT200=

USA.gov is the U.S. government's official web portal to all federal, state and local government web resources and services.